createdAt,value
2022-10-16T00:00:35.768Z,100.00
2022-10-16T00:06:37.934Z,100.00
2022-10-16T00:20:20.458Z,100.00
2022-10-16T00:26:23.413Z,100.00
2022-10-16T00:32:25.680Z,100.00
2022-10-16T00:38:27.915Z,100.00
2022-10-16T00:44:58.424Z,100.00
2022-10-16T00:51:00.836Z,100.00
2022-10-16T00:57:06.876Z,100.00
2022-10-16T01:03:32.175Z,100.00
2022-10-16T01:10:22.952Z,100.00
2022-10-16T01:16:50.188Z,100.00
2022-10-16T01:23:26.187Z,100.00
2022-10-16T01:29:59.728Z,100.00
2022-10-16T01:36:29.023Z,100.00
2022-10-16T01:42:40.419Z,100.00
2022-10-16T01:48:42.745Z,100.00
2022-10-16T01:54:49.741Z,100.00
2022-10-16T02:00:53.215Z,100.00
2022-10-16T02:06:56.169Z,100.00
2022-10-16T02:13:06.956Z,100.00
2022-10-16T02:19:09.291Z,100.00
2022-10-16T02:25:23.029Z,100.00
2022-10-16T02:31:30.317Z,100.00
2022-10-16T02:37:33.313Z,100.00
2022-10-16T02:43:35.487Z,100.00
2022-10-16T02:49:37.411Z,100.00
2022-10-16T02:55:39.309Z,100.00
2022-10-16T03:01:41.326Z,100.00
2022-10-16T03:07:43.422Z,100.00
2022-10-16T03:13:45.328Z,100.00
2022-10-16T03:19:47.244Z,100.00
2022-10-16T03:25:49.177Z,100.00
2022-10-16T03:31:51.076Z,100.00
2022-10-16T03:37:53.306Z,100.00
2022-10-16T03:43:55.176Z,100.00
2022-10-16T03:56:06.794Z,100.00
2022-10-16T04:02:08.690Z,100.00
2022-10-16T04:08:10.837Z,100.00
2022-10-16T04:14:13.039Z,100.00
2022-10-16T04:20:15.474Z,100.00
2022-10-16T04:26:17.480Z,100.00
2022-10-16T04:32:54.375Z,100.00
2022-10-16T04:38:56.701Z,100.00
2022-10-16T04:44:58.566Z,100.00
2022-10-16T04:51:00.871Z,100.00
2022-10-16T04:57:03.168Z,100.00
2022-10-16T05:03:08.526Z,100.00
2022-10-16T05:09:11.210Z,100.00
2022-10-16T05:15:26.645Z,100.00
2022-10-16T05:21:28.751Z,100.00
2022-10-16T05:27:30.884Z,100.00
2022-10-16T05:33:32.825Z,100.00
2022-10-16T05:39:34.851Z,100.00
2022-10-16T05:45:39.693Z,100.00
2022-10-16T05:51:42.925Z,100.00
2022-10-16T05:57:45.957Z,100.00
2022-10-16T06:03:48.168Z,100.00
2022-10-16T06:10:02.439Z,100.00
2022-10-16T06:16:05.930Z,100.00
2022-10-16T06:22:08.325Z,100.00
2022-10-16T06:28:10.469Z,100.00
2022-10-16T06:34:13.159Z,100.00
2022-10-16T06:40:16.330Z,100.00
2022-10-16T06:46:23.083Z,100.00
2022-10-16T06:52:26.067Z,100.00
2022-10-16T06:58:28.433Z,100.00
2022-10-16T07:04:30.498Z,100.00
2022-10-16T07:10:33.830Z,98.84
2022-10-16T07:16:35.731Z,99.32
2022-10-16T07:22:43.658Z,98.21
2022-10-16T07:28:46.081Z,97.68
2022-10-16T07:34:48.206Z,97.55
2022-10-16T07:41:03.467Z,96.47
2022-10-16T07:47:05.366Z,95.98
2022-10-16T07:53:07.675Z,94.03
2022-10-16T07:59:11.491Z,92.60
2022-10-16T08:05:13.950Z,91.71
2022-10-16T08:11:16.296Z,91.44
2022-10-16T08:17:21.054Z,90.85
2022-10-16T08:23:22.961Z,89.80
2022-10-16T08:29:24.924Z,89.24
2022-10-16T08:35:26.857Z,88.83
2022-10-16T08:41:56.438Z,87.93
2022-10-16T08:48:10.366Z,85.71
2022-10-16T08:54:41.598Z,84.19
2022-10-16T09:00:51.413Z,82.79
2022-10-16T09:07:39.949Z,81.31
2022-10-16T09:13:49.412Z,79.86
2022-10-16T09:20:43.708Z,78.37
2022-10-16T09:26:47.481Z,77.48
2022-10-16T09:32:54.023Z,77.38
2022-10-16T09:39:15.685Z,76.20
2022-10-16T09:45:25.404Z,77.95
2022-10-16T09:51:37.572Z,76.58
2022-10-16T09:57:54.091Z,75.01
2022-10-16T10:04:03.491Z,75.16
2022-10-16T10:10:07.372Z,74.19
2022-10-16T10:17:09.645Z,76.37
2022-10-16T10:24:11.054Z,75.36
2022-10-16T10:30:29.005Z,74.31
2022-10-16T10:36:43.045Z,72.17
2022-10-16T10:43:25.607Z,72.71
2022-10-16T10:49:49.000Z,71.21
2022-10-16T10:56:30.555Z,68.16
2022-10-16T11:02:43.056Z,66.41
2022-10-16T11:09:01.406Z,68.15
2022-10-16T11:15:27.767Z,66.48
2022-10-16T11:21:40.674Z,63.12
2022-10-16T11:28:18.368Z,60.26
2022-10-16T11:34:37.927Z,61.38
2022-10-16T11:41:05.491Z,59.92
2022-10-16T11:47:58.679Z,59.01
2022-10-16T11:54:25.833Z,59.06
2022-10-16T12:00:51.860Z,56.82
2022-10-16T12:07:13.095Z,55.86
2022-10-16T12:13:37.682Z,54.93
2022-10-16T12:19:39.625Z,55.80
2022-10-16T12:25:47.529Z,56.06
2022-10-16T12:31:57.528Z,54.81
2022-10-16T12:38:22.426Z,54.81
2022-10-16T12:44:25.655Z,57.69
2022-10-16T12:50:34.533Z,55.33
2022-10-16T12:57:07.416Z,56.42
2022-10-16T13:03:44.881Z,55.08
2022-10-16T13:10:08.406Z,54.62
2022-10-16T13:16:27.753Z,52.07
2022-10-16T13:22:57.585Z,51.07
2022-10-16T13:29:02.413Z,44.88
2022-10-16T13:35:18.916Z,46.21
2022-10-16T13:41:22.221Z,43.42
2022-10-16T13:47:31.028Z,44.16
2022-10-16T13:53:35.840Z,42.24
2022-10-16T13:59:39.994Z,42.55
2022-10-16T14:06:07.645Z,45.63
2022-10-16T14:12:13.456Z,48.00
2022-10-16T14:18:23.894Z,50.15
2022-10-16T14:24:33.109Z,50.51
2022-10-16T14:30:37.482Z,51.73
2022-10-16T14:36:42.499Z,55.17
2022-10-16T14:42:46.635Z,54.71
2022-10-16T14:48:52.220Z,54.50
2022-10-16T14:54:55.997Z,56.40
2022-10-16T15:00:58.115Z,57.78
2022-10-16T15:07:00.096Z,61.02
2022-10-16T15:13:02.055Z,61.27
2022-10-16T15:19:04.350Z,65.86
2022-10-16T15:25:08.785Z,67.36
2022-10-16T15:31:10.790Z,69.80
2022-10-16T15:37:16.127Z,67.14
2022-10-16T15:43:19.324Z,66.32
2022-10-16T15:49:21.226Z,70.76
2022-10-16T16:01:48.603Z,73.96
2022-10-16T16:14:00.101Z,78.18
2022-10-16T16:20:03.050Z,80.31
2022-10-16T16:26:16.444Z,80.86
2022-10-16T16:32:18.320Z,81.08
2022-10-16T16:38:20.252Z,81.35
2022-10-16T16:44:22.211Z,81.40
2022-10-16T16:50:24.121Z,80.43
2022-10-16T16:56:27.170Z,80.52
2022-10-16T17:02:29.101Z,80.58
2022-10-16T17:08:31.258Z,80.70
2022-10-16T17:14:33.252Z,82.11
2022-10-16T17:20:37.143Z,82.01
2022-10-16T17:26:41.396Z,82.85
2022-10-16T17:32:43.290Z,84.06
2022-10-16T17:38:46.100Z,84.05
2022-10-16T17:44:48.046Z,83.17
2022-10-16T17:50:49.971Z,83.48
2022-10-16T17:56:52.012Z,83.44
2022-10-16T18:02:53.934Z,83.34
2022-10-16T18:08:58.231Z,83.09
2022-10-16T18:15:00.576Z,83.69
2022-10-16T18:21:07.497Z,84.53
2022-10-16T18:27:23.294Z,84.63
2022-10-16T18:39:59.972Z,85.44
2022-10-16T18:46:05.954Z,85.01
2022-10-16T18:52:07.937Z,85.18
2022-10-16T18:58:10.081Z,85.18
2022-10-16T19:04:16.679Z,85.41
2022-10-16T19:10:19.884Z,85.92
2022-10-16T19:16:32.241Z,85.69
2022-10-16T19:22:54.269Z,86.90
2022-10-16T19:29:02.070Z,86.75
2022-10-16T19:35:04.353Z,86.99
2022-10-16T19:41:12.165Z,87.52
2022-10-16T19:47:14.684Z,87.77
2022-10-16T19:53:16.604Z,88.40
2022-10-16T19:59:20.280Z,87.67
2022-10-16T20:05:22.245Z,88.41
2022-10-16T20:11:28.512Z,88.08
2022-10-16T20:17:30.722Z,86.63
2022-10-16T20:23:33.646Z,87.97
2022-10-16T20:29:35.611Z,88.99
2022-10-16T20:35:44.683Z,88.33
2022-10-16T20:41:46.613Z,89.86
2022-10-16T20:47:48.548Z,90.96
2022-10-16T20:54:02.858Z,91.98
2022-10-16T21:00:06.411Z,92.88
2022-10-16T21:06:10.507Z,92.88
2022-10-16T21:12:12.654Z,93.08
2022-10-16T21:18:14.584Z,92.67
2022-10-16T21:24:17.892Z,94.23
2022-10-16T21:30:20.139Z,94.13
2022-10-16T21:36:31.560Z,94.79
2022-10-16T21:42:36.575Z,95.20
2022-10-16T21:48:39.474Z,94.92
2022-10-16T21:54:41.906Z,95.33
2022-10-16T22:00:43.878Z,96.27
2022-10-16T22:06:47.310Z,95.56
2022-10-16T22:13:02.180Z,96.41
2022-10-16T22:19:07.362Z,96.20
2022-10-16T22:25:09.672Z,97.20
2022-10-16T22:38:53.529Z,98.32
2022-10-16T22:45:14.817Z,98.81
2022-10-16T22:51:17.993Z,99.17
2022-10-16T22:57:19.978Z,100.00
2022-10-16T23:03:22.343Z,100.00
2022-10-16T23:09:24.326Z,100.00
2022-10-16T23:15:26.425Z,100.00
2022-10-16T23:21:28.486Z,100.00
2022-10-16T23:27:40.342Z,100.00
2022-10-16T23:33:51.165Z,100.00
2022-10-16T23:39:54.074Z,100.00
2022-10-16T23:45:56.107Z,100.00
2022-10-16T23:51:58.000Z,100.00
2022-10-16T23:57:59.893Z,100.00
